Time;durP1;ratioP1;P1;durP2;ratioP2;P2;SDS_P1;SDS_P2;PMS_P1;PMS_P2;Temp;Humidity;BMP_temperature;BMP_pressure;BME280_temperature;BME280_humidity;BME280_pressure;Samples;Min_cycle;Max_cycle;Signal;HPM_P1;HPM_P2
2023/12/11 00:00:29;;;;;;;5.23;1.10;;;;;;;-0.56;100.00;97076.63;6253605;28;20219;-43
2023/12/11 00:03:31;;;;;;;4.33;1.23;;;;;;;-0.47;100.00;97094.84;6243415;28;20562;-42
2023/12/11 00:06:34;;;;;;;4.07;1.00;;;;;;;-0.56;100.00;97081.84;6258703;28;20198;-42
2023/12/11 00:09:37;;;;;;;3.17;1.07;;;;;;;-0.51;100.00;97078.69;6252792;28;20832;-43
2023/12/11 00:12:39;;;;;;;3.77;1.10;;;;;;;-0.63;100.00;97072.34;6254406;28;20692;-41
2023/12/11 00:15:41;;;;;;;2.73;1.27;;;;;;;-0.69;100.00;97073.91;6251795;28;20538;-41
2023/12/11 00:18:44;;;;;;;6.73;1.60;;;;;;;-0.72;100.00;97055.16;6253735;28;20206;-42
2023/12/11 00:21:46;;;;;;;4.20;1.10;;;;;;;-0.71;100.00;97048.91;6251064;28;20210;-43
2023/12/11 00:24:49;;;;;;;3.13;1.00;;;;;;;-0.72;100.00;97035.03;6243303;28;20194;-42
2023/12/11 00:27:51;;;;;;;2.90;0.90;;;;;;;-0.58;100.00;97035.97;6246307;28;20200;-43
2023/12/11 00:30:53;;;;;;;5.60;1.00;;;;;;;-0.57;100.00;97027.13;6248804;28;20196;-42
2023/12/11 00:33:56;;;;;;;1.97;1.00;;;;;;;-0.55;100.00;97012.84;6252920;28;20224;-43
2023/12/11 00:36:59;;;;;;;6.83;1.30;;;;;;;-0.51;100.00;97021.13;6256844;28;20207;-42
2023/12/11 00:40:03;;;;;;;4.23;1.00;;;;;;;-0.64;100.00;96993.06;6246572;28;20215;-42
2023/12/11 00:43:06;;;;;;;4.60;1.10;;;;;;;-0.46;100.00;97016.16;6247924;28;20334;-43
2023/12/11 00:46:13;;;;;;;6.07;1.80;;;;;;;-0.41;100.00;97019.00;6258669;28;20317;-43
2023/12/11 00:49:16;;;;;;;4.40;1.50;;;;;;;-0.37;100.00;97014.22;6251589;28;20187;-42
2023/12/11 00:52:19;;;;;;;2.00;1.30;;;;;;;-0.34;100.00;97009.41;6252778;28;20200;-43
2023/12/11 00:55:21;;;;;;;4.33;1.20;;;;;;;-0.41;100.00;96985.00;6254664;28;20224;-42
2023/12/11 00:58:24;;;;;;;3.00;1.20;;;;;;;-0.29;100.00;96995.78;6252299;28;20200;-42
2023/12/11 01:01:27;;;;;;;1.93;1.10;;;;;;;-0.32;100.00;96947.22;6264149;28;20211;-44
2023/12/11 01:04:29;;;;;;;5.10;1.10;;;;;;;-0.15;100.00;96957.38;6252466;28;20214;-43
2023/12/11 01:07:32;;;;;;;3.93;1.20;;;;;;;-0.16;100.00;96953.97;6248958;28;20195;-42
2023/12/11 01:10:35;;;;;;;2.77;1.13;;;;;;;-0.13;100.00;96950.97;6251177;28;20196;-43
2023/12/11 01:13:38;;;;;;;3.43;1.03;;;;;;;-0.24;100.00;96929.78;6243527;28;20196;-43
2023/12/11 01:16:41;;;;;;;3.17;1.20;;;;;;;-0.08;100.00;96948.59;6248669;28;20212;-42
2023/12/11 01:19:43;;;;;;;4.10;1.07;;;;;;;-0.08;100.00;96943.34;6254280;28;20206;-42
2023/12/11 01:22:46;;;;;;;3.20;1.20;;;;;;;-0.06;100.00;96933.47;6254267;28;20476;-44
2023/12/11 01:25:48;;;;;;;1.67;1.13;;;;;;;-0.02;100.00;96932.09;6253951;28;20195;-43
2023/12/11 01:28:51;;;;;;;4.90;1.37;;;;;;;0.03;100.00;96930.72;6256055;28;20194;-44
2023/12/11 01:31:54;;;;;;;3.07;0.93;;;;;;;0.03;100.00;96930.72;6254395;28;20239;-44
2023/12/11 01:34:56;;;;;;;7.00;1.20;;;;;;;0.08;100.00;96921.28;6253974;28;20207;-42
2023/12/11 01:37:59;;;;;;;2.90;0.90;;;;;;;0.15;100.00;96924.75;6248053;28;20188;-45
2023/12/11 01:41:02;;;;;;;2.43;1.00;;;;;;;0.13;100.00;96929.34;6244950;28;20851;-45
2023/12/11 01:44:05;;;;;;;2.60;0.93;;;;;;;-0.05;100.00;96895.84;6247071;28;20211;-44
2023/12/11 01:47:07;;;;;;;2.50;0.90;;;;;;;0.11;100.00;96931.38;6226649;28;20329;-42
2023/12/11 01:50:11;;;;;;;5.33;0.80;;;;;;;0.12;100.00;96925.13;6246300;28;20199;-43
2023/12/11 01:53:13;;;;;;;1.33;0.93;;;;;;;0.17;100.00;96933.22;6249992;28;20746;-43
2023/12/11 01:56:17;;;;;;;2.30;0.63;;;;;;;0.19;100.00;96931.19;6250909;28;20203;-42
2023/12/11 01:59:20;;;;;;;1.30;1.00;;;;;;;0.22;100.00;96917.72;6250590;28;20550;-44
2023/12/11 02:02:23;;;;;;;2.20;1.00;;;;;;;0.19;100.00;96920.72;6252711;28;20573;-43
2023/12/11 02:05:26;;;;;;;2.90;0.80;;;;;;;0.20;100.00;96929.41;6241961;28;20195;-44
2023/12/11 02:08:29;;;;;;;1.43;1.10;;;;;;;0.02;100.00;96908.16;6252979;28;20194;-44
2023/12/11 02:11:32;;;;;;;4.13;1.03;;;;;;;0.16;100.00;96922.94;6258202;28;20204;-43
2023/12/11 02:14:34;;;;;;;4.13;1.10;;;;;;;0.17;100.00;96920.13;6252439;28;20599;-44
2023/12/11 02:17:37;;;;;;;2.83;0.90;;;;;;;0.16;100.00;96934.22;6238834;28;20229;-43
2023/12/11 02:20:41;;;;;;;1.77;1.00;;;;;;;0.16;100.00;96939.47;6253250;28;20573;-43
2023/12/11 02:23:51;;;;;;;1.97;0.90;;;;;;;0.13;100.00;96931.97;6256673;28;20206;-43
2023/12/11 02:26:54;;;;;;;2.20;0.80;;;;;;;0.14;100.00;96943.25;6251904;28;20563;-43
2023/12/11 02:29:56;;;;;;;2.27;0.77;;;;;;;0.14;100.00;96932.78;6260333;28;20191;-44
2023/12/11 02:32:58;;;;;;;0.60;0.60;;;;;;;0.14;100.00;96943.25;6245362;28;20236;-44
2023/12/11 02:36:02;;;;;;;1.50;0.90;;;;;;;0.16;100.00;96944.69;6251762;28;20724;-43
2023/12/11 02:39:04;;;;;;;4.47;0.97;;;;;;;0.18;100.00;96949.72;6262286;28;20226;-44
2023/12/11 02:42:07;;;;;;;6.17;1.03;;;;;;;0.16;100.00;96964.84;6255272;28;20395;-44
2023/12/11 02:45:09;;;;;;;4.13;1.10;;;;;;;-0.05;100.00;96957.84;6257219;28;20245;-45
2023/12/11 02:48:12;;;;;;;2.50;0.73;;;;;;;0.20;100.00;97000.13;6254015;28;20326;-44
2023/12/11 02:51:16;;;;;;;2.37;0.90;;;;;;;0.19;100.00;97001.09;6254206;28;20199;-45
2023/12/11 02:54:18;;;;;;;5.03;1.07;;;;;;;0.23;100.00;97023.28;6250701;28;20564;-44
2023/12/11 02:57:21;;;;;;;1.73;0.80;;;;;;;0.24;100.00;96986.41;6252909;28;20207;-43
2023/12/11 03:00:23;;;;;;;2.93;0.70;;;;;;;0.23;100.00;97020.69;6253909;28;20628;-45
2023/12/11 03:03:26;;;;;;;1.53;0.70;;;;;;;0.20;100.00;97063.78;6246824;28;20197;-44
2023/12/11 03:06:28;;;;;;;1.77;1.07;;;;;;;0.20;100.00;97065.59;6266544;28;20181;-44
2023/12/11 03:09:30;;;;;;;2.93;0.73;;;;;;;0.21;100.00;97056.75;6258773;28;20689;-45
2023/12/11 03:12:32;;;;;;;5.27;0.87;;;;;;;0.29;100.00;97067.03;6258868;28;20515;-44
2023/12/11 03:15:35;;;;;;;2.63;1.10;;;;;;;0.29;100.00;97074.09;6258351;28;20217;-44
2023/12/11 03:18:37;;;;;;;1.40;1.00;;;;;;;0.35;100.00;97073.34;6260051;28;20203;-45
2023/12/11 03:21:40;;;;;;;2.60;0.97;;;;;;;0.38;100.00;97078.19;6255409;28;20278;-45
2023/12/11 03:24:42;;;;;;;2.43;0.90;;;;;;;0.41;100.00;97068.16;6256925;28;20207;-46
2023/12/11 03:27:44;;;;;;;3.47;1.07;;;;;;;0.47;100.00;97077.03;6255358;28;20191;-46
2023/12/11 03:30:47;;;;;;;2.20;0.93;;;;;;;0.48;100.00;97084.69;6262635;28;20206;-45
2023/12/11 03:33:49;;;;;;;2.93;1.63;;;;;;;0.48;100.00;97082.09;6257510;28;20246;-45
2023/12/11 03:36:51;;;;;;;1.50;0.90;;;;;;;0.48;100.00;97073.41;6260600;28;20204;-47
2023/12/11 03:39:54;;;;;;;3.03;0.83;;;;;;;0.44;100.00;97073.00;6259863;28;20203;-44
2023/12/11 03:42:56;;;;;;;3.27;1.27;;;;;;;0.46;100.00;97085.91;6265288;28;20274;-46
2023/12/11 03:46:03;;;;;;;4.97;1.07;;;;;;;0.51;100.00;97078.28;6257660;28;20206;-45
2023/12/11 03:49:06;;;;;;;7.40;1.37;;;;;;;0.48;100.00;97082.09;6252265;28;20196;-46
2023/12/11 03:52:08;;;;;;;3.37;1.27;;;;;;;0.47;100.00;97075.22;6250117;28;20885;-46
2023/12/11 03:55:12;;;;;;;7.77;1.73;;;;;;;0.67;100.00;97096.31;6238352;28;20265;-44
2023/12/11 03:58:14;;;;;;;4.73;1.10;;;;;;;0.72;100.00;97095.72;6258353;28;20234;-44
2023/12/11 04:01:17;;;;;;;4.17;1.27;;;;;;;0.82;100.00;97092.75;6245937;28;20701;-45
2023/12/11 04:04:20;;;;;;;2.87;0.70;;;;;;;0.77;100.00;97086.28;6237400;28;20695;-45
2023/12/11 04:07:22;;;;;;;5.13;1.30;;;;;;;0.75;100.00;97072.56;6256926;28;20327;-45
2023/12/11 04:10:25;;;;;;;4.73;1.30;;;;;;;0.82;100.00;97056.84;6254572;28;20196;-45
2023/12/11 04:13:28;;;;;;;2.97;1.10;;;;;;;0.76;100.00;97060.25;6256808;28;20197;-44
2023/12/11 04:16:30;;;;;;;3.10;0.93;;;;;;;0.74;100.00;97038.69;6260178;28;20212;-44
2023/12/11 04:19:33;;;;;;;2.27;1.00;;;;;;;0.68;100.00;97024.53;6255703;28;20204;-44
2023/12/11 04:22:35;;;;;;;1.13;0.70;;;;;;;0.62;100.00;96999.09;6255582;28;20192;-44
2023/12/11 04:25:38;;;;;;;3.10;1.00;;;;;;;0.59;100.00;96993.44;6251353;28;20192;-43
2023/12/11 04:28:40;;;;;;;2.77;0.90;;;;;;;0.62;100.00;97027.94;6252153;28;20263;-44
2023/12/11 04:31:43;;;;;;;5.00;0.80;;;;;;;0.57;100.00;97017.22;6251557;28;20254;-45
2023/12/11 04:34:45;;;;;;;2.10;1.00;;;;;;;0.51;100.00;97016.19;6257835;28;20196;-45
2023/12/11 04:37:48;;;;;;;1.70;0.80;;;;;;;0.51;100.00;96984.75;6249342;28;20349;-46
2023/12/11 04:40:51;;;;;;;2.37;0.90;;;;;;;0.47;100.00;97012.34;6252187;28;20325;-44
2023/12/11 04:43:53;;;;;;;2.97;0.90;;;;;;;0.25;100.00;96992.50;6254378;28;20188;-47
2023/12/11 04:46:56;;;;;;;2.07;0.73;;;;;;;0.35;100.00;97028.81;6255050;28;20203;-47
2023/12/11 04:49:58;;;;;;;5.27;1.00;;;;;;;0.33;100.00;97034.22;6236753;28;20695;-47
2023/12/11 04:53:01;;;;;;;1.27;0.90;;;;;;;0.34;100.00;97022.75;6250895;28;20207;-45
2023/12/11 04:56:08;;;;;;;2.13;1.13;;;;;;;0.30;100.00;96999.78;6249149;28;20215;-45
2023/12/11 04:59:10;;;;;;;4.00;1.23;;;;;;;0.29;100.00;96988.47;6255612;28;20315;-45
2023/12/11 05:02:13;;;;;;;2.93;1.00;;;;;;;0.37;100.00;97009.28;6252196;28;20249;-45
2023/12/11 05:05:16;;;;;;;4.37;1.00;;;;;;;0.33;100.00;97022.94;6252958;28;20271;-47
2023/12/11 05:08:19;;;;;;;4.03;1.03;;;;;;;0.32;100.00;97029.19;6245193;28;20192;-45
2023/12/11 05:11:22;;;;;;;3.10;0.93;;;;;;;0.27;100.00;97031.59;6249551;28;20734;-45
2023/12/11 05:14:24;;;;;;;2.70;0.73;;;;;;;0.18;100.00;97013.38;6255391;28;20303;-45
2023/12/11 05:17:27;;;;;;;1.67;0.70;;;;;;;0.26;100.00;97038.63;6255247;28;20618;-44
2023/12/11 05:20:30;;;;;;;5.87;1.30;;;;;;;0.29;100.00;97045.28;6257964;28;20685;-45
2023/12/11 05:23:33;;;;;;;2.97;1.00;;;;;;;0.30;100.00;97063.44;6253065;28;20190;-45
2023/12/11 05:26:36;;;;;;;3.07;0.87;;;;;;;0.33;100.00;97062.25;6251232;28;20733;-46
2023/12/11 05:29:38;;;;;;;1.63;0.60;;;;;;;0.35;100.00;97078.59;6239352;28;20214;-44
2023/12/11 05:32:44;;;;;;;1.87;0.60;;;;;;;0.33;100.00;97083.19;6256276;28;20580;-43
2023/12/11 05:35:46;;;;;;;1.37;0.70;;;;;;;0.30;100.00;97089.66;6262683;28;20290;-44
2023/12/11 05:38:49;;;;;;;3.70;0.80;;;;;;;0.24;100.00;97082.53;6249829;28;20199;-45
2023/12/11 05:41:52;;;;;;;1.20;0.73;;;;;;;0.09;100.00;97050.38;6252708;28;20196;-45
2023/12/11 05:44:54;;;;;;;1.00;0.70;;;;;;;0.34;100.00;97092.66;6258013;28;20199;-43
2023/12/11 05:47:57;;;;;;;2.93;0.87;;;;;;;0.36;100.00;97096.72;6258268;28;20186;-44
2023/12/11 05:51:00;;;;;;;5.57;1.70;;;;;;;0.45;100.00;97084.31;6253988;28;20269;-44
2023/12/11 05:54:04;;;;;;;3.77;1.10;;;;;;;0.21;100.00;97060.16;6243003;28;20278;-44
2023/12/11 05:57:06;;;;;;;1.30;0.90;;;;;;;0.43;100.00;97092.34;6256304;28;20303;-45
2023/12/11 06:00:11;;;;;;;8.43;1.50;;;;;;;0.45;100.00;97087.72;6259236;28;20223;-47
2023/12/11 06:03:14;;;;;;;6.23;1.33;;;;;;;0.48;100.00;97083.91;6259778;28;20575;-46
2023/12/11 06:06:17;;;;;;;3.23;1.20;;;;;;;0.51;100.00;97065.19;6260901;28;20223;-44
2023/12/11 06:09:19;;;;;;;5.33;2.10;;;;;;;0.57;100.00;97042.63;6258971;28;20192;-44
2023/12/11 06:12:22;;;;;;;3.37;1.57;;;;;;;0.60;100.00;97069.28;6256162;28;20293;-44
2023/12/11 06:15:24;;;;;;;4.63;1.30;;;;;;;0.55;100.00;97055.13;6261089;28;20196;-44
2023/12/11 06:18:26;;;;;;;4.03;1.60;;;;;;;0.55;100.00;97042.03;6252601;28;20238;-45
2023/12/11 06:21:29;;;;;;;4.80;1.40;;;;;;;0.55;100.00;97024.50;6257132;28;20195;-45
2023/12/11 06:24:31;;;;;;;1.33;1.00;;;;;;;0.58;100.00;97031.13;6249124;28;20184;-44
2023/12/11 06:27:33;;;;;;;2.13;0.77;;;;;;;0.54;100.00;97053.50;6253953;28;20196;-46
2023/12/11 06:30:35;;;;;;;1.30;0.80;;;;;;;0.47;100.00;97061.31;6251466;28;20192;-44
2023/12/11 06:33:38;;;;;;;1.57;0.70;;;;;;;0.42;100.00;97075.00;6252021;28;20230;-45
2023/12/11 06:36:40;;;;;;;1.57;0.67;;;;;;;0.38;100.00;97065.91;6252137;28;20209;-45
2023/12/11 06:39:42;;;;;;;2.07;0.83;;;;;;;0.35;100.00;97079.41;6255274;28;20194;-44
2023/12/11 06:42:45;;;;;;;1.77;0.70;;;;;;;0.33;100.00;97070.09;6256925;28;20207;-45
2023/12/11 06:45:47;;;;;;;0.60;0.50;;;;;;;0.31;100.00;97059.81;6253860;28;20195;-45
2023/12/11 06:48:50;;;;;;;1.57;0.70;;;;;;;0.29;100.00;97055.75;6238300;28;20571;-44
2023/12/11 06:51:55;;;;;;;2.50;0.87;;;;;;;0.25;100.00;97056.16;6251504;28;20204;-45
2023/12/11 06:54:58;;;;;;;3.03;0.80;;;;;;;0.28;100.00;97060.19;6254966;28;20237;-45
2023/12/11 06:58:00;;;;;;;2.17;1.17;;;;;;;0.29;100.00;97059.19;6247888;28;20232;-45
2023/12/11 07:01:03;;;;;;;2.27;1.03;;;;;;;0.25;100.00;97060.59;6244968;28;20200;-47
2023/12/11 07:04:05;;;;;;;2.23;0.87;;;;;;;0.18;100.00;97047.44;6252732;28;20195;-44
2023/12/11 07:07:09;;;;;;;3.00;0.80;;;;;;;0.20;100.00;97036.78;6248649;28;20230;-45
2023/12/11 07:10:11;;;;;;;3.23;0.90;;;;;;;0.23;100.00;97047.66;6254957;28;20192;-45
2023/12/11 07:13:14;;;;;;;5.60;1.00;;;;;;;0.23;100.00;97031.16;6249567;28;20694;-44
2023/12/11 07:16:16;;;;;;;2.30;1.03;;;;;;;0.18;100.00;97023.88;6250688;28;20294;-45
2023/12/11 07:19:21;;;;;;;3.30;0.80;;;;;;;0.06;100.00;97009.69;6235607;28;20271;-46
2023/12/11 07:22:24;;;;;;;1.50;0.83;;;;;;;0.15;100.00;97031.31;6251591;28;20199;-45
2023/12/11 07:25:26;;;;;;;2.10;0.70;;;;;;;-0.07;100.00;96988.66;6250721;28;20188;-45
2023/12/11 07:28:29;;;;;;;3.77;1.00;;;;;;;0.12;100.00;97016.78;6241134;28;20208;-44
2023/12/11 07:31:31;;;;;;;2.03;1.03;;;;;;;0.14;100.00;97006.09;6253716;28;20714;-46
2023/12/11 07:34:33;;;;;;;2.10;1.10;;;;;;;0.15;100.00;97011.19;6243703;28;20188;-44
2023/12/11 07:37:36;;;;;;;1.27;0.87;;;;;;;0.01;100.00;96982.47;6259106;28;20218;-43
2023/12/11 07:40:38;;;;;;;2.20;1.10;;;;;;;0.21;100.00;97020.06;6266420;28;20225;-43
2023/12/11 07:43:40;;;;;;;1.60;1.03;;;;;;;0.19;100.00;97022.06;6260587;28;20266;-45
2023/12/11 07:46:42;;;;;;;2.13;1.30;;;;;;;0.24;100.00;97028.31;6248868;28;20219;-45
2023/12/11 07:49:44;;;;;;;3.40;1.00;;;;;;;0.28;100.00;97034.00;6249609;28;20211;-45
2023/12/11 07:52:46;;;;;;;1.33;0.93;;;;;;;0.17;100.00;97016.22;6243680;28;20196;-45
2023/12/11 07:55:49;;;;;;;3.07;1.07;;;;;;;0.34;100.00;97032.41;6236227;28;20207;-46
2023/12/11 07:58:51;;;;;;;2.33;1.23;;;;;;;0.36;100.00;97038.28;6253448;28;20302;-46
2023/12/11 08:01:54;;;;;;;1.40;1.10;;;;;;;0.39;100.00;97045.75;6256047;28;20202;-48
2023/12/11 08:04:57;;;;;;;3.03;0.93;;;;;;;0.40;100.00;97050.81;6256712;28;20282;-45
2023/12/11 08:08:01;;;;;;;1.93;1.10;;;;;;;0.44;100.00;97048.59;6256298;28;20214;-44
2023/12/11 08:11:03;;;;;;;1.00;0.90;;;;;;;0.48;100.00;97050.63;6259128;28;20199;-45
2023/12/11 08:14:06;;;;;;;1.03;0.90;;;;;;;0.54;100.00;97050.88;6245890;28;20665;-44
2023/12/11 08:17:08;;;;;;;0.93;0.70;;;;;;;0.59;100.00;97056.34;6255015;28;20249;-45
2023/12/11 08:20:11;;;;;;;2.23;1.03;;;;;;;0.63;100.00;97034.78;6256856;28;20212;-45
2023/12/11 08:23:14;;;;;;;2.40;1.10;;;;;;;0.67;100.00;97037.84;6247889;28;20203;-43
2023/12/11 08:26:18;;;;;;;6.37;3.67;;;;;;;0.76;100.00;97049.78;6249786;28;20246;-47
2023/12/11 08:29:22;;;;;;;6.57;2.60;;;;;;;0.81;100.00;97042.13;6247000;28;20226;-48
2023/12/11 08:32:24;;;;;;;4.57;3.10;;;;;;;0.86;100.00;97036.31;6249236;28;20244;-46
2023/12/11 08:35:26;;;;;;;4.10;2.50;;;;;;;0.87;100.00;97037.91;6252624;28;20196;-44
2023/12/11 08:38:29;;;;;;;3.40;1.90;;;;;;;0.83;100.00;97047.97;6252101;28;20211;-47
2023/12/11 08:41:31;;;;;;;3.03;1.80;;;;;;;0.77;100.00;97056.63;6252048;28;20224;-46
2023/12/11 08:44:33;;;;;;;3.70;2.00;;;;;;;0.73;100.00;97050.97;6253532;28;20192;-45
2023/12/11 08:47:35;;;;;;;3.50;2.33;;;;;;;0.73;100.00;97053.59;6254176;28;20700;-45
2023/12/11 08:50:41;;;;;;;13.03;7.50;;;;;;;0.75;100.00;97062.06;6251393;28;20200;-44
2023/12/11 08:53:43;;;;;;;19.87;12.33;;;;;;;0.59;100.00;97025.72;6251376;28;20195;-46
2023/12/11 08:56:45;;;;;;;22.63;15.30;;;;;;;0.77;100.00;97048.78;6250038;28;20216;-44
2023/12/11 08:59:48;;;;;;;27.00;17.00;;;;;;;0.78;100.00;97039.91;6253849;28;20201;-45
2023/12/11 09:02:51;;;;;;;28.40;19.93;;;;;;;0.95;100.00;97061.34;6247597;28;20186;-45
2023/12/11 09:05:53;;;;;;;34.03;22.10;;;;;;;0.95;100.00;97043.81;6244657;28;20667;-45
2023/12/11 09:08:58;;;;;;;34.77;22.10;;;;;;;0.99;100.00;97037.16;6245350;28;20193;-45
2023/12/11 09:12:01;;;;;;;33.80;23.03;;;;;;;1.06;100.00;97024.06;6245818;28;20204;-45
2023/12/11 09:15:04;;;;;;;36.93;23.93;;;;;;;1.11;100.00;97021.66;6251270;28;20238;-44
2023/12/11 09:18:07;;;;;;;35.30;21.57;;;;;;;1.03;100.00;97001.69;6258055;28;20203;-45
2023/12/11 09:21:10;;;;;;;30.97;21.27;;;;;;;1.17;100.00;97025.31;6251589;28;20246;-43
2023/12/11 09:24:12;;;;;;;39.53;23.30;;;;;;;1.17;100.00;97026.09;6244785;28;20192;-45
2023/12/11 09:27:14;;;;;;;28.43;18.30;;;;;;;1.21;100.00;97027.34;6247270;28;20253;-46
2023/12/11 09:30:17;;;;;;;28.57;18.97;;;;;;;1.25;100.00;97038.25;6245908;28;20200;-45
2023/12/11 09:33:19;;;;;;;30.97;20.17;;;;;;;1.27;100.00;97028.34;6243747;28;20266;-44
2023/12/11 09:36:21;;;;;;;32.03;20.30;;;;;;;1.28;100.00;97017.69;6250213;28;20275;-45
2023/12/11 09:39:24;;;;;;;28.07;19.00;;;;;;;1.27;100.00;97007.34;6258058;28;20201;-46
2023/12/11 09:42:26;;;;;;;22.43;16.53;;;;;;;1.31;100.00;97003.34;6258401;28;20197;-43
2023/12/11 09:45:30;;;;;;;25.43;16.93;;;;;;;1.44;100.00;97008.59;6250591;28;20203;-43
2023/12/11 09:48:33;;;;;;;28.27;16.63;;;;;;;1.47;100.00;96989.81;6250122;28;20193;-45
2023/12/11 09:51:36;;;;;;;13.70;9.00;;;;;;;1.65;100.00;97004.19;6251008;28;20189;-45
2023/12/11 09:54:38;;;;;;;17.70;9.53;;;;;;;1.78;100.00;97012.88;6250525;28;20669;-45
2023/12/11 09:57:41;;;;;;;17.47;13.07;;;;;;;1.90;100.00;96997.28;6253923;28;20215;-45
2023/12/11 10:00:44;;;;;;;18.70;11.87;;;;;;;1.87;100.00;96994.25;6253237;28;20208;-45
2023/12/11 10:03:47;;;;;;;12.70;8.83;;;;;;;1.91;100.00;96988.41;6254351;28;20209;-45
2023/12/11 10:06:52;;;;;;;11.83;9.30;;;;;;;1.98;100.00;96986.59;6255434;28;20602;-44
2023/12/11 10:09:54;;;;;;;13.70;10.03;;;;;;;2.07;100.00;97008.22;6252050;28;20640;-44
2023/12/11 10:12:58;;;;;;;15.10;9.97;;;;;;;2.24;100.00;97001.50;6252498;28;20286;-47
2023/12/11 10:16:00;;;;;;;16.67;10.43;;;;;;;2.32;100.00;97000.47;6252632;28;20220;-44
2023/12/11 10:19:02;;;;;;;21.67;11.47;;;;;;;2.48;100.00;96983.44;6245134;28;20204;-46
2023/12/11 10:22:05;;;;;;;21.00;11.80;;;;;;;2.62;100.00;96977.13;6251636;28;20653;-45
2023/12/11 10:25:07;;;;;;;14.63;10.07;;;;;;;2.66;100.00;96974.88;6233597;28;20673;-45
2023/12/11 10:28:12;;;;;;;17.33;12.47;;;;;;;2.60;100.00;96968.63;6244991;28;20201;-46
2023/12/11 10:31:14;;;;;;;15.53;9.57;;;;;;;2.67;100.00;96963.34;6250588;28;20192;-45
2023/12/11 10:34:16;;;;;;;15.23;9.33;;;;;;;2.73;100.00;96959.88;6252977;28;20199;-46
2023/12/11 10:37:29;;;;;;;11.57;7.10;;;;;;;2.81;100.00;96943.88;6257010;28;20284;-46
2023/12/11 10:40:41;;;;;;;5.50;2.70;;;;;;;2.85;100.00;96937.16;6256560;28;20206;-46
2023/12/11 10:43:44;;;;;;;6.20;2.30;;;;;;;2.83;100.00;96929.47;6257008;28;20903;-48
2023/12/11 10:46:52;;;;;;;5.30;3.33;;;;;;;2.82;100.00;96938.38;6254221;28;20198;-45
2023/12/11 10:49:54;;;;;;;4.47;3.47;;;;;;;2.81;100.00;96936.78;6254892;28;20247;-47
2023/12/11 10:53:00;;;;;;;4.53;3.23;;;;;;;2.82;100.00;96933.13;6257501;28;20208;-47
2023/12/11 10:56:03;;;;;;;4.70;3.03;;;;;;;2.93;100.00;96936.91;6257084;28;20199;-47
2023/12/11 10:59:06;;;;;;;4.83;2.93;;;;;;;3.14;100.00;96935.75;6255619;28;20325;-45
2023/12/11 11:02:11;;;;;;;5.23;3.17;;;;;;;3.19;100.00;96922.75;6245377;28;20203;-45
2023/12/11 11:05:15;;;;;;;8.27;4.30;;;;;;;3.30;100.00;96937.06;6250890;28;20193;-46
2023/12/11 11:08:39;;;;;;;8.17;4.33;;;;;;;3.34;100.00;96920.63;6251355;28;20317;-46
2023/12/11 11:11:49;;;;;;;5.90;3.00;;;;;;;3.41;100.00;96922.41;6250626;28;20197;-46
2023/12/11 11:14:51;;;;;;;6.93;3.90;;;;;;;3.42;100.00;96945.88;6252938;28;20192;-45
2023/12/11 11:18:09;;;;;;;4.03;2.33;;;;;;;3.34;100.00;96944.31;6252572;28;20205;-44
2023/12/11 11:21:13;;;;;;;5.00;2.90;;;;;;;3.30;100.00;96930.00;6256772;28;20199;-45
2023/12/11 11:24:28;;;;;;;7.57;3.43;;;;;;;3.21;100.00;96926.00;6257234;28;20271;-46
2023/12/11 11:27:42;;;;;;;3.50;2.03;;;;;;;3.18;100.00;96923.78;6255491;28;20196;-45
2023/12/11 11:30:44;;;;;;;4.20;1.97;;;;;;;3.13;100.00;96943.88;6251492;28;20204;-46
2023/12/11 11:33:52;;;;;;;3.13;2.17;;;;;;;3.05;100.00;96913.34;6249247;28;20238;-44
2023/12/11 11:36:55;;;;;;;5.13;2.60;;;;;;;3.06;100.00;96891.31;6252548;28;20201;-45
2023/12/11 11:40:05;;;;;;;4.70;2.00;;;;;;;3.04;100.00;96901.22;6252165;28;20189;-46
2023/12/11 11:43:09;;;;;;;2.10;1.67;;;;;;;2.94;100.00;96890.34;6246940;28;20279;-45
2023/12/11 11:46:11;;;;;;;3.70;1.83;;;;;;;2.90;100.00;96876.81;6245358;28;20555;-44
2023/12/11 11:49:36;;;;;;;2.80;1.63;;;;;;;2.91;100.00;96857.41;6253781;28;20564;-44
2023/12/11 11:52:41;;;;;;;2.87;1.50;;;;;;;3.03;100.00;96849.63;6254801;28;20202;-44
2023/12/11 11:55:44;;;;;;;3.13;1.97;;;;;;;3.10;100.00;96855.63;6255757;28;20201;-43
2023/12/11 11:58:46;;;;;;;3.60;1.80;;;;;;;3.19;100.00;96856.16;6252858;28;20259;-46
2023/12/11 12:01:54;;;;;;;3.07;1.60;;;;;;;3.24;100.00;96888.72;6256941;28;20197;-45
2023/12/11 12:05:05;;;;;;;4.07;1.80;;;;;;;3.24;100.00;96880.81;6258346;28;20331;-44
2023/12/11 12:08:12;;;;;;;2.23;1.73;;;;;;;3.19;100.00;96906.16;6258260;28;20188;-45
2023/12/11 12:11:15;;;;;;;1.83;1.40;;;;;;;3.07;100.00;96908.69;6245904;28;20205;-46
2023/12/11 12:14:17;;;;;;;2.90;1.67;;;;;;;2.94;100.00;96917.47;6260207;28;20204;-45
2023/12/11 12:17:22;;;;;;;2.70;1.80;;;;;;;2.88;100.00;96917.50;6262781;28;20200;-44
2023/12/11 12:20:24;;;;;;;3.17;1.37;;;;;;;2.77;100.00;96914.53;6256905;28;20233;-45
2023/12/11 12:23:27;;;;;;;1.70;1.43;;;;;;;2.69;100.00;96909.53;6253991;28;20199;-44
2023/12/11 12:26:33;;;;;;;2.40;1.50;;;;;;;2.66;100.00;96911.75;6250856;28;20210;-45
2023/12/11 12:29:37;;;;;;;1.83;1.10;;;;;;;2.62;100.00;96898.25;6251397;28;20283;-45
2023/12/11 12:32:39;;;;;;;2.67;1.30;;;;;;;2.61;100.00;96888.75;6250545;28;20603;-45
2023/12/11 12:35:44;;;;;;;2.13;1.20;;;;;;;2.59;100.00;96880.25;6236713;28;20227;-46
2023/12/11 12:38:47;;;;;;;1.87;1.40;;;;;;;2.59;100.00;96891.56;6252907;28;20215;-45
2023/12/11 12:41:50;;;;;;;4.27;1.40;;;;;;;2.32;100.00;96856.75;6253874;28;20195;-45
2023/12/11 12:44:55;;;;;;;1.57;1.33;;;;;;;2.52;100.00;96897.91;6252003;28;20334;-46
2023/12/11 12:47:57;;;;;;;3.33;1.33;;;;;;;2.46;100.00;96885.56;6254481;28;20666;-47
2023/12/11 12:51:10;;;;;;;6.60;1.80;;;;;;;2.43;100.00;96891.25;6253970;28;20215;-46
2023/12/11 12:54:13;;;;;;;3.13;1.23;;;;;;;2.27;100.00;96863.63;6244884;28;20194;-45
2023/12/11 12:57:16;;;;;;;3.73;1.23;;;;;;;2.37;100.00;96871.88;6252398;28;20278;-46
2023/12/11 13:00:20;;;;;;;2.83;1.40;;;;;;;2.39;100.00;96874.28;6250649;28;20203;-48
2023/12/11 13:03:23;;;;;;;1.77;1.23;;;;;;;2.28;100.00;96894.16;6250268;28;20194;-46
2023/12/11 13:06:26;;;;;;;2.30;1.30;;;;;;;2.21;100.00;96899.41;6248130;28;20218;-47
2023/12/11 13:09:30;;;;;;;1.33;1.23;;;;;;;2.19;100.00;96882.25;6247660;28;20188;-46
2023/12/11 13:12:32;;;;;;;2.07;1.37;;;;;;;2.15;100.00;96863.47;6250083;28;20234;-46
2023/12/11 13:15:35;;;;;;;1.53;1.40;;;;;;;2.16;100.00;96870.34;6234409;28;20570;-49
2023/12/11 13:18:37;;;;;;;3.90;1.40;;;;;;;2.03;100.00;96860.69;6253900;28;20679;-47
2023/12/11 13:21:39;;;;;;;2.27;1.50;;;;;;;2.03;100.00;96836.25;6251600;28;20197;-46
2023/12/11 13:24:42;;;;;;;1.60;1.20;;;;;;;2.00;100.00;96874.22;6250206;28;20193;-47
2023/12/11 13:27:46;;;;;;;3.63;1.53;;;;;;;1.94;100.00;96880.31;6248905;28;20191;-48
2023/12/11 13:30:49;;;;;;;3.33;1.70;;;;;;;1.84;100.00;96863.38;6250669;28;20195;-47
2023/12/11 13:33:53;;;;;;;3.07;1.50;;;;;;;1.91;100.00;96859.72;6246648;28;20280;-47
2023/12/11 13:36:56;;;;;;;3.87;1.57;;;;;;;1.71;100.00;96822.22;6247725;28;20198;-50
2023/12/11 13:39:58;;;;;;;2.23;1.40;;;;;;;1.89;100.00;96843.38;6246841;28;20265;-46
2023/12/11 13:43:01;;;;;;;2.30;1.40;;;;;;;1.70;100.00;96824.03;6246451;28;20630;-46
2023/12/11 13:46:04;;;;;;;2.37;1.60;;;;;;;1.88;100.00;96859.34;6245416;28;20651;-46
2023/12/11 13:49:06;;;;;;;4.67;1.80;;;;;;;1.80;100.00;96879.53;6250964;28;20336;-49
2023/12/11 13:52:09;;;;;;;3.47;1.47;;;;;;;1.71;100.00;96857.13;6259249;28;20207;-47
2023/12/11 13:55:11;;;;;;;2.20;1.50;;;;;;;1.62;100.00;96847.88;6247726;28;20223;-49
2023/12/11 13:58:14;;;;;;;2.47;1.90;;;;;;;1.70;100.00;96873.09;6252153;28;20244;-46
2023/12/11 14:01:16;;;;;;;2.27;1.50;;;;;;;1.72;100.00;96885.00;6255844;28;20228;-47
2023/12/11 14:04:18;;;;;;;3.23;1.40;;;;;;;1.56;100.00;96859.19;6257262;28;20239;-47
2023/12/11 14:07:21;;;;;;;2.83;1.30;;;;;;;1.62;100.00;96881.19;6262696;28;20200;-48
2023/12/11 14:10:23;;;;;;;2.33;1.50;;;;;;;1.59;100.00;96887.66;6247869;28;20752;-49
2023/12/11 14:13:26;;;;;;;3.97;1.40;;;;;;;1.31;100.00;96853.78;6260186;28;20275;-47
2023/12/11 14:16:28;;;;;;;1.50;1.40;;;;;;;1.48;100.00;96893.56;6264927;28;20201;-48
2023/12/11 14:19:31;;;;;;;2.63;1.53;;;;;;;1.33;100.00;96875.38;6266886;28;20699;-48